Ennadai, Canada
Current Conditions -  °F | °C
As of 10:00 PM on Wednesday 28 Jan 2015 (Local Time) from CYBQ Reporting Station
Clear Clear  
Wind Chill: -41°   Ceiling: Unl
Heat Index: -20°   Visibility: 9mi
Dew Point: -26°   Wind: 10mph
Humidity: 76%   Direction: 300°WNW
Pressure: 30.23"   Gusts: 17mph
Location:  61.13°N, 100.88°W
Report Text: CYBQ 290400Z AUTO 30009G15KT 9SM CLR M29/M32 A3023 RMK SLP282
Loading
Personal Weather Stations






























Interactive Weather Map New forecast layout! Learn more

10-Day Weather Forecast

Advertisements
Track Severe Weather on mobile